sensor_id;sensor_type;location;lat;lon;timestamp;pressure;altitude;pressure_sealevel;temperature
72278;BMP280;61204;49.980;8.358;2023-01-29T00:01:56;101966.97;;;0.52
72278;BMP280;61204;49.980;8.358;2023-01-29T00:04:22;101961.31;;;0.49
72278;BMP280;61204;49.980;8.358;2023-01-29T00:06:50;101965.03;;;0.52
72278;BMP280;61204;49.980;8.358;2023-01-29T00:09:16;101960.09;;;0.51
72278;BMP280;61204;49.980;8.358;2023-01-29T00:11:42;101966.25;;;0.51
72278;BMP280;61204;49.980;8.358;2023-01-29T00:14:08;101971.34;;;0.49
72278;BMP280;61204;49.980;8.358;2023-01-29T00:16:33;101962.81;;;0.51
72278;BMP280;61204;49.980;8.358;2023-01-29T00:18:59;101959.38;;;0.50
72278;BMP280;61204;49.980;8.358;2023-01-29T00:21:26;101968.19;;;0.51
72278;BMP280;61204;49.980;8.358;2023-01-29T00:23:54;101961.41;;;0.55
72278;BMP280;61204;49.980;8.358;2023-01-29T00:26:21;101969.31;;;0.59
72278;BMP280;61204;49.980;8.358;2023-01-29T00:28:46;101975.19;;;0.57
72278;BMP280;61204;49.980;8.358;2023-01-29T00:31:13;101975.19;;;0.57
72278;BMP280;61204;49.980;8.358;2023-01-29T00:33:45;101996.78;;;0.57
72278;BMP280;61204;49.980;8.358;2023-01-29T00:36:12;101996.78;;;0.57
72278;BMP280;61204;49.980;8.358;2023-01-29T00:38:42;101999.66;;;0.54
72278;BMP280;61204;49.980;8.358;2023-01-29T00:41:12;101994.91;;;0.48
72278;BMP280;61204;49.980;8.358;2023-01-29T00:43:58;101976.50;;;0.47
72278;BMP280;61204;49.980;8.358;2023-01-29T00:46:44;101975.75;;;0.46
72278;BMP280;61204;49.980;8.358;2023-01-29T00:49:12;101981.16;;;0.46
72278;BMP280;61204;49.980;8.358;2023-01-29T00:51:38;101977.22;;;0.47
72278;BMP280;61204;49.980;8.358;2023-01-29T00:54:04;101988.75;;;0.48
72278;BMP280;61204;49.980;8.358;2023-01-29T00:56:31;101975.56;;;0.50
72278;BMP280;61204;49.980;8.358;2023-01-29T00:58:59;101969.88;;;0.48
72278;BMP280;61204;49.980;8.358;2023-01-29T01:01:25;101970.81;;;0.45
72278;BMP280;61204;49.980;8.358;2023-01-29T01:04:09;101972.94;;;0.41
72278;BMP280;61204;49.980;8.358;2023-01-29T01:06:40;101969.69;;;0.37
72278;BMP280;61204;49.980;8.358;2023-01-29T01:09:07;101967.00;;;0.37
72278;BMP280;61204;49.980;8.358;2023-01-29T01:11:53;101969.13;;;0.33
72278;BMP280;61204;49.980;8.358;2023-01-29T01:14:19;101961.03;;;0.33
72278;BMP280;61204;49.980;8.358;2023-01-29T01:16:49;101966.66;;;0.29
72278;BMP280;61204;49.980;8.358;2023-01-29T01:19:15;101953.63;;;0.28
72278;BMP280;61204;49.980;8.358;2023-01-29T01:21:41;101955.31;;;0.25
72278;BMP280;61204;49.980;8.358;2023-01-29T01:24:12;101946.66;;;0.21
72278;BMP280;61204;49.980;8.358;2023-01-29T01:26:37;101954.00;;;0.20
72278;BMP280;61204;49.980;8.358;2023-01-29T01:29:03;101953.47;;;0.16
72278;BMP280;61204;49.980;8.358;2023-01-29T01:31:29;101949.53;;;0.17
72278;BMP280;61204;49.980;8.358;2023-01-29T01:33:54;101948.31;;;0.18
72278;BMP280;61204;49.980;8.358;2023-01-29T01:36:20;101942.38;;;0.14
72278;BMP280;61204;49.980;8.358;2023-01-29T01:38:46;101946.00;;;0.11
72278;BMP280;61204;49.980;8.358;2023-01-29T01:41:16;101940.03;;;0.07
72278;BMP280;61204;49.980;8.358;2023-01-29T01:43:55;101941.25;;;0.06
72278;BMP280;61204;49.980;8.358;2023-01-29T01:46:25;101927.69;;;0.01
72278;BMP280;61204;49.980;8.358;2023-01-29T01:49:00;101916.16;;;0.00
72278;BMP280;61204;49.980;8.358;2023-01-29T01:51:33;101916.81;;;-0.05
72278;BMP280;61204;49.980;8.358;2023-01-29T01:54:05;101913.00;;;0.02
72278;BMP280;61204;49.980;8.358;2023-01-29T01:56:38;101910.19;;;-0.04
72278;BMP280;61204;49.980;8.358;2023-01-29T01:59:14;101907.13;;;-0.12
72278;BMP280;61204;49.980;8.358;2023-01-29T02:01:45;101914.22;;;-0.14
72278;BMP280;61204;49.980;8.358;2023-01-29T02:04:20;101905.09;;;-0.17
72278;BMP280;61204;49.980;8.358;2023-01-29T02:07:09;101906.66;;;-0.25
72278;BMP280;61204;49.980;8.358;2023-01-29T02:10:08;101902.38;;;-0.32
72278;BMP280;61204;49.980;8.358;2023-01-29T02:12:39;101894.63;;;-0.39
72278;BMP280;61204;49.980;8.358;2023-01-29T02:15:06;101902.63;;;-0.44
72278;BMP280;61204;49.980;8.358;2023-01-29T02:17:33;101897.13;;;-0.50
72278;BMP280;61204;49.980;8.358;2023-01-29T02:43:40;101906.81;;;-0.82
72278;BMP280;61204;49.980;8.358;2023-01-29T02:49:01;101914.03;;;-0.88
72278;BMP280;61204;49.980;8.358;2023-01-29T02:51:38;101932.13;;;-0.89
72278;BMP280;61204;49.980;8.358;2023-01-29T02:54:38;101928.97;;;-0.87
72278;BMP280;61204;49.980;8.358;2023-01-29T02:59:57;101933.00;;;-0.83
72278;BMP280;61204;49.980;8.358;2023-01-29T03:05:54;101941.00;;;-0.74
72278;BMP280;61204;49.980;8.358;2023-01-29T03:08:44;101929.03;;;-0.73
72278;BMP280;61204;49.980;8.358;2023-01-29T03:11:18;101919.75;;;-0.71
72278;BMP280;61204;49.980;8.358;2023-01-29T03:16:48;101909.19;;;-0.60
72278;BMP280;61204;49.980;8.358;2023-01-29T03:19:25;101909.19;;;-0.60
72278;BMP280;61204;49.980;8.358;2023-01-29T03:22:01;101911.88;;;-0.60
72278;BMP280;61204;49.980;8.358;2023-01-29T03:24:43;101918.47;;;-0.61
72278;BMP280;61204;49.980;8.358;2023-01-29T03:27:35;101930.91;;;-0.64
72278;BMP280;61204;49.980;8.358;2023-01-29T03:31:02;101930.19;;;-0.64
72278;BMP280;61204;49.980;8.358;2023-01-29T03:36:29;101940.31;;;-0.59
72278;BMP280;61204;49.980;8.358;2023-01-29T03:39:11;101946.44;;;-0.59
72278;BMP280;61204;49.980;8.358;2023-01-29T03:53:17;101920.25;;;-0.58
72278;BMP280;61204;49.980;8.358;2023-01-29T03:56:01;101916.06;;;-0.59
72278;BMP280;61204;49.980;8.358;2023-01-29T03:58:51;101921.91;;;-0.61
72278;BMP280;61204;49.980;8.358;2023-01-29T04:01:39;101923.00;;;-0.67
72278;BMP280;61204;49.980;8.358;2023-01-29T04:04:14;101927.84;;;-0.71
72278;BMP280;61204;49.980;8.358;2023-01-29T04:07:12;101928.00;;;-0.75
72278;BMP280;61204;49.980;8.358;2023-01-29T04:09:47;101941.56;;;-0.69
72278;BMP280;61204;49.980;8.358;2023-01-29T04:12:30;101938.59;;;-0.71
72278;BMP280;61204;49.980;8.358;2023-01-29T04:15:06;101923.06;;;-0.77
72278;BMP280;61204;49.980;8.358;2023-01-29T04:17:38;101914.97;;;-0.77
72278;BMP280;61204;49.980;8.358;2023-01-29T04:20:09;101908.69;;;-0.74
72278;BMP280;61204;49.980;8.358;2023-01-29T04:22:37;101892.69;;;-0.77
72278;BMP280;61204;49.980;8.358;2023-01-29T04:25:07;101888.22;;;-0.80
72278;BMP280;61204;49.980;8.358;2023-01-29T04:41:34;101887.91;;;-1.21
72278;BMP280;61204;49.980;8.358;2023-01-29T04:44:22;101890.94;;;-1.28
72278;BMP280;61204;49.980;8.358;2023-01-29T04:50:13;101896.31;;;-1.37
72278;BMP280;61204;49.980;8.358;2023-01-29T04:55:44;101897.97;;;-1.31
72278;BMP280;61204;49.980;8.358;2023-01-29T05:01:14;101896.59;;;-1.26
72278;BMP280;61204;49.980;8.358;2023-01-29T05:03:48;101898.84;;;-1.25
72278;BMP280;61204;49.980;8.358;2023-01-29T05:06:18;101904.22;;;-1.25
72278;BMP280;61204;49.980;8.358;2023-01-29T05:08:46;101900.31;;;-1.24
72278;BMP280;61204;49.980;8.358;2023-01-29T05:11:15;101897.91;;;-1.22
72278;BMP280;61204;49.980;8.358;2023-01-29T05:13:42;101898.22;;;-1.19
72278;BMP280;61204;49.980;8.358;2023-01-29T05:16:13;101893.13;;;-1.17
72278;BMP280;61204;49.980;8.358;2023-01-29T05:18:47;101899.25;;;-1.17
72278;BMP280;61204;49.980;8.358;2023-01-29T05:21:14;101893.41;;;-1.15
72278;BMP280;61204;49.980;8.358;2023-01-29T05:24:04;101886.06;;;-1.15
72278;BMP280;61204;49.980;8.358;2023-01-29T05:26:41;101895.19;;;-1.12
72278;BMP280;61204;49.980;8.358;2023-01-29T05:29:27;101888.16;;;-1.10
72278;BMP280;61204;49.980;8.358;2023-01-29T05:31:53;101877.47;;;-1.04
72278;BMP280;61204;49.980;8.358;2023-01-29T05:34:18;101873.13;;;-1.02
72278;BMP280;61204;49.980;8.358;2023-01-29T05:36:46;101862.19;;;-0.98
72278;BMP280;61204;49.980;8.358;2023-01-29T05:39:12;101869.97;;;-1.00
72278;BMP280;61204;49.980;8.358;2023-01-29T05:41:37;101878.03;;;-1.00
72278;BMP280;61204;49.980;8.358;2023-01-29T05:44:03;101883.44;;;-1.00
72278;BMP280;61204;49.980;8.358;2023-01-29T05:46:29;101890.75;;;-1.01
72278;BMP280;61204;49.980;8.358;2023-01-29T05:48:54;101885.38;;;-1.01
72278;BMP280;61204;49.980;8.358;2023-01-29T05:51:20;101889.13;;;-0.98
72278;BMP280;61204;49.980;8.358;2023-01-29T05:53:45;101893.28;;;-0.97
72278;BMP280;61204;49.980;8.358;2023-01-29T05:56:10;101897.03;;;-0.94
72278;BMP280;61204;49.980;8.358;2023-01-29T05:58:36;101897.13;;;-0.89
72278;BMP280;61204;49.980;8.358;2023-01-29T06:01:12;101903.81;;;-0.84
72278;BMP280;61204;49.980;8.358;2023-01-29T06:03:39;101898.09;;;-0.77
72278;BMP280;61204;49.980;8.358;2023-01-29T06:06:05;101891.66;;;-0.80
72278;BMP280;61204;49.980;8.358;2023-01-29T06:08:31;101898.00;;;-0.83
72278;BMP280;61204;49.980;8.358;2023-01-29T06:10:57;101908.75;;;-0.83
72278;BMP280;61204;49.980;8.358;2023-01-29T06:13:22;101906.06;;;-0.83
72278;BMP280;61204;49.980;8.358;2023-01-29T06:15:48;101901.41;;;-0.82
72278;BMP280;61204;49.980;8.358;2023-01-29T06:18:13;101898.25;;;-0.81
72278;BMP280;61204;49.980;8.358;2023-01-29T06:20:39;101902.44;;;-0.80
72278;BMP280;61204;49.980;8.358;2023-01-29T06:23:04;101910.50;;;-0.80
72278;BMP280;61204;49.980;8.358;2023-01-29T06:25:30;101901.97;;;-0.78
72278;BMP280;61204;49.980;8.358;2023-01-29T06:27:55;101892.69;;;-0.77
72278;BMP280;61204;49.980;8.358;2023-01-29T06:30:21;101889.81;;;-0.74
72278;BMP280;61204;49.980;8.358;2023-01-29T06:32:46;101887.13;;;-0.74
72278;BMP280;61204;49.980;8.358;2023-01-29T06:35:12;101887.88;;;-0.73
72278;BMP280;61204;49.980;8.358;2023-01-29T06:37:38;101885.66;;;-0.75
72278;BMP280;61204;49.980;8.358;2023-01-29T06:40:03;101885.66;;;-0.75
72278;BMP280;61204;49.980;8.358;2023-01-29T06:42:29;101891.22;;;-0.78
72278;BMP280;61204;49.980;8.358;2023-01-29T06:44:55;101890.47;;;-0.79
72278;BMP280;61204;49.980;8.358;2023-01-29T06:47:21;101883.88;;;-0.78
72278;BMP280;61204;49.980;8.358;2023-01-29T06:49:47;101886.28;;;-0.80
72278;BMP280;61204;49.980;8.358;2023-01-29T06:52:13;101882.56;;;-0.82
72278;BMP280;61204;49.980;8.358;2023-01-29T06:54:39;101889.16;;;-0.83
72278;BMP280;61204;49.980;8.358;2023-01-29T06:57:04;101891.09;;;-0.84
72278;BMP280;61204;49.980;8.358;2023-01-29T06:59:30;101887.66;;;-0.84
72278;BMP280;61204;49.980;8.358;2023-01-29T07:01:55;101886.47;;;-0.83
72278;BMP280;61204;49.980;8.358;2023-01-29T07:04:21;101890.66;;;-0.82
72278;BMP280;61204;49.980;8.358;2023-01-29T07:06:46;101896.31;;;-0.80
72278;BMP280;61204;49.980;8.358;2023-01-29T07:09:12;101893.34;;;-0.82
72278;BMP280;61204;49.980;8.358;2023-01-29T07:11:38;101900.94;;;-0.81
72278;BMP280;61204;49.980;8.358;2023-01-29T07:14:04;101910.97;;;-0.81
72278;BMP280;61204;49.980;8.358;2023-01-29T07:16:32;101915.16;;;-0.80
72278;BMP280;61204;49.980;8.358;2023-01-29T07:18:58;101921.28;;;-0.80
72278;BMP280;61204;49.980;8.358;2023-01-29T07:21:24;101924.75;;;-0.79
72278;BMP280;61204;49.980;8.358;2023-01-29T07:23:52;101928.19;;;-0.79
72278;BMP280;61204;49.980;8.358;2023-01-29T07:26:17;101937.75;;;-0.78
72278;BMP280;61204;49.980;8.358;2023-01-29T07:28:43;101938.03;;;-0.76
72278;BMP280;61204;49.980;8.358;2023-01-29T07:31:10;101934.13;;;-0.75
72278;BMP280;61204;49.980;8.358;2023-01-29T07:33:37;101926.78;;;-0.74
72278;BMP280;61204;49.980;8.358;2023-01-29T07:36:06;101937.84;;;-0.72
72278;BMP280;61204;49.980;8.358;2023-01-29T07:38:35;101937.09;;;-0.73
72278;BMP280;61204;49.980;8.358;2023-01-29T07:41:01;101939.06;;;-0.73
72278;BMP280;61204;49.980;8.358;2023-01-29T07:43:26;101935.44;;;-0.70
72278;BMP280;61204;49.980;8.358;2023-01-29T07:45:51;101939.44;;;-0.65
72278;BMP280;61204;49.980;8.358;2023-01-29T07:48:17;101940.97;;;-0.64
72278;BMP280;61204;49.980;8.358;2023-01-29T07:50:43;101931.94;;;-0.61
72278;BMP280;61204;49.980;8.358;2023-01-29T07:53:14;101920.97;;;-0.58
72278;BMP280;61204;49.980;8.358;2023-01-29T07:55:42;101914.97;;;-0.53
72278;BMP280;61204;49.980;8.358;2023-01-29T07:58:09;101907.16;;;-0.51
72278;BMP280;61204;49.980;8.358;2023-01-29T08:00:34;101902.50;;;-0.50
72278;BMP280;61204;49.980;8.358;2023-01-29T08:03:01;101894.97;;;-0.46
72278;BMP280;61204;49.980;8.358;2023-01-29T08:05:33;101899.09;;;-0.36
72278;BMP280;61204;49.980;8.358;2023-01-29T08:08:01;101906.38;;;-0.27
72278;BMP280;61204;49.980;8.358;2023-01-29T08:10:28;101916.59;;;-0.16
72278;BMP280;61204;49.980;8.358;2023-01-29T08:12:54;101921.47;;;-0.06
72278;BMP280;61204;49.980;8.358;2023-01-29T08:15:23;101914.66;;;-0.01
72278;BMP280;61204;49.980;8.358;2023-01-29T08:17:50;101922.13;;;0.04
72278;BMP280;61204;49.980;8.358;2023-01-29T08:20:18;101922.19;;;0.10
72278;BMP280;61204;49.980;8.358;2023-01-29T08:22:46;101931.78;;;0.11
72278;BMP280;61204;49.980;8.358;2023-01-29T08:25:12;101949.00;;;0.13
72278;BMP280;61204;49.980;8.358;2023-01-29T08:27:39;101956.41;;;0.18
72278;BMP280;61204;49.980;8.358;2023-01-29T08:30:06;101953.81;;;0.24
72278;BMP280;61204;49.980;8.358;2023-01-29T08:32:35;101938.94;;;0.29
72278;BMP280;61204;49.980;8.358;2023-01-29T08:35:01;101928.88;;;0.29
72278;BMP280;61204;49.980;8.358;2023-01-29T08:37:26;101928.63;;;0.27
72278;BMP280;61204;49.980;8.358;2023-01-29T08:39:52;101923.25;;;0.33
72278;BMP280;61204;49.980;8.358;2023-01-29T08:42:17;101914.59;;;0.43
72278;BMP280;61204;49.980;8.358;2023-01-29T08:44:43;101915.03;;;0.57
72278;BMP280;61204;49.980;8.358;2023-01-29T08:47:08;101924.50;;;0.67
72278;BMP280;61204;49.980;8.358;2023-01-29T08:49:33;101927.44;;;0.84
72278;BMP280;61204;49.980;8.358;2023-01-29T08:51:59;101940.22;;;1.04
72278;BMP280;61204;49.980;8.358;2023-01-29T08:54:24;101947.16;;;0.90
72278;BMP280;61204;49.980;8.358;2023-01-29T08:56:50;101946.22;;;0.93
72278;BMP280;61204;49.980;8.358;2023-01-29T08:59:15;101951.72;;;0.98
72278;BMP280;61204;49.980;8.358;2023-01-29T09:01:41;101947.72;;;1.14
72278;BMP280;61204;49.980;8.358;2023-01-29T09:04:07;101946.03;;;1.17
72278;BMP280;61204;49.980;8.358;2023-01-29T09:06:33;101950.28;;;1.03
72278;BMP280;61204;49.980;8.358;2023-01-29T09:08:59;101951.03;;;1.04
72278;BMP280;61204;49.980;8.358;2023-01-29T09:11:24;101953.44;;;1.02
72278;BMP280;61204;49.980;8.358;2023-01-29T09:13:52;101957.31;;;1.15
72278;BMP280;61204;49.980;8.358;2023-01-29T09:16:17;101966.50;;;1.23
72278;BMP280;61204;49.980;8.358;2023-01-29T09:18:43;101961.25;;;1.14
72278;BMP280;61204;49.980;8.358;2023-01-29T09:21:11;101970.28;;;1.11
72278;BMP280;61204;49.980;8.358;2023-01-29T09:23:36;101977.72;;;1.16
72278;BMP280;61204;49.980;8.358;2023-01-29T09:26:02;101986.50;;;1.11
72278;BMP280;61204;49.980;8.358;2023-01-29T09:28:28;101996.28;;;1.09
72278;BMP280;61204;49.980;8.358;2023-01-29T09:30:53;101981.34;;;1.13
72278;BMP280;61204;49.980;8.358;2023-01-29T09:33:18;101988.31;;;1.20
72278;BMP280;61204;49.980;8.358;2023-01-29T09:35:44;101984.97;;;1.25
72278;BMP280;61204;49.980;8.358;2023-01-29T09:38:11;101991.56;;;1.24
72278;BMP280;61204;49.980;8.358;2023-01-29T09:43:54;101985.75;;;1.31
72278;BMP280;61204;49.980;8.358;2023-01-29T09:46:34;101986.44;;;1.26
72278;BMP280;61204;49.980;8.358;2023-01-29T09:49:09;101996.78;;;1.28
72278;BMP280;61204;49.980;8.358;2023-01-29T09:51:48;101994.34;;;1.30
72278;BMP280;61204;49.980;8.358;2023-01-29T09:56:57;101990.91;;;1.29
72278;BMP280;61204;49.980;8.358;2023-01-29T09:59:25;101995.13;;;1.36
72278;BMP280;61204;49.980;8.358;2023-01-29T10:07:53;101984.53;;;1.12
72278;BMP280;61204;49.980;8.358;2023-01-29T10:10:39;101975.59;;;1.06
72278;BMP280;61204;49.980;8.358;2023-01-29T10:24:36;101970.38;;;1.43
72278;BMP280;61204;49.980;8.358;2023-01-29T10:27:22;101955.63;;;1.64
72278;BMP280;61204;49.980;8.358;2023-01-29T10:30:02;101942.97;;;1.76
72278;BMP280;61204;49.980;8.358;2023-01-29T10:32:45;101938.78;;;1.75
72278;BMP280;61204;49.980;8.358;2023-01-29T10:35:19;101930.88;;;1.71
72278;BMP280;61204;49.980;8.358;2023-01-29T10:37:52;101933.09;;;1.73
72278;BMP280;61204;49.980;8.358;2023-01-29T10:40:20;101926.16;;;1.20
72278;BMP280;61204;49.980;8.358;2023-01-29T10:43:02;101913.41;;;1.00
72278;BMP280;61204;49.980;8.358;2023-01-29T10:48:43;101903.50;;;1.38
72278;BMP280;61204;49.980;8.358;2023-01-29T11:02:46;101886.97;;;2.68
72278;BMP280;61204;49.980;8.358;2023-01-29T11:08:05;101865.88;;;2.78
72278;BMP280;61204;49.980;8.358;2023-01-29T11:13:35;101869.22;;;3.38
72278;BMP280;61204;49.980;8.358;2023-01-29T11:16:08;101863.31;;;3.73
72278;BMP280;61204;49.980;8.358;2023-01-29T11:18:54;101861.56;;;3.76
72278;BMP280;61204;49.980;8.358;2023-01-29T11:21:25;101857.34;;;3.86
72278;BMP280;61204;49.980;8.358;2023-01-29T11:26:53;101853.19;;;3.23
72278;BMP280;61204;49.980;8.358;2023-01-29T11:32:28;101860.78;;;3.13
72278;BMP280;61204;49.980;8.358;2023-01-29T11:37:37;101861.97;;;2.90
72278;BMP280;61204;49.980;8.358;2023-01-29T11:42:43;101842.41;;;2.58
72278;BMP280;61204;49.980;8.358;2023-01-29T11:47:46;101840.19;;;2.56
72278;BMP280;61204;49.980;8.358;2023-01-29T11:50:19;101836.44;;;2.48
72278;BMP280;61204;49.980;8.358;2023-01-29T11:52:50;101829.38;;;2.62
72278;BMP280;61204;49.980;8.358;2023-01-29T11:57:53;101830.06;;;2.51
72278;BMP280;61204;49.980;8.358;2023-01-29T12:00:32;101813.31;;;2.53
72278;BMP280;61204;49.980;8.358;2023-01-29T12:05:34;101807.94;;;2.58
72278;BMP280;61204;49.980;8.358;2023-01-29T12:08:00;101804.03;;;2.70
72278;BMP280;61204;49.980;8.358;2023-01-29T12:10:28;101789.28;;;2.77
72278;BMP280;61204;49.980;8.358;2023-01-29T12:15:33;101787.53;;;2.63
72278;BMP280;61204;49.980;8.358;2023-01-29T12:20:56;101778.50;;;3.39
72278;BMP280;61204;49.980;8.358;2023-01-29T12:26:23;101774.06;;;3.30
72278;BMP280;61204;49.980;8.358;2023-01-29T12:32:00;101766.16;;;2.93
72278;BMP280;61204;49.980;8.358;2023-01-29T12:34:34;101760.25;;;3.00
72278;BMP280;61204;49.980;8.358;2023-01-29T12:39:59;101749.41;;;2.89
72278;BMP280;61204;49.980;8.358;2023-01-29T12:42:26;101758.75;;;3.10
72278;BMP280;61204;49.980;8.358;2023-01-29T12:47:44;101745.75;;;4.59
72278;BMP280;61204;49.980;8.358;2023-01-29T12:50:34;101752.25;;;5.16
72278;BMP280;61204;49.980;8.358;2023-01-29T12:53:22;101742.31;;;5.18
72278;BMP280;61204;49.980;8.358;2023-01-29T12:56:14;101731.88;;;4.98
72278;BMP280;61204;49.980;8.358;2023-01-29T12:59:13;101730.34;;;5.08
72278;BMP280;61204;49.980;8.358;2023-01-29T13:01:58;101732.69;;;5.17
72278;BMP280;61204;49.980;8.358;2023-01-29T13:04:40;101725.53;;;4.07
72278;BMP280;61204;49.980;8.358;2023-01-29T13:07:27;101718.25;;;3.80
72278;BMP280;61204;49.980;8.358;2023-01-29T13:10:04;101715.09;;;4.28
72278;BMP280;61204;49.980;8.358;2023-01-29T13:12:39;101724.69;;;4.29
72278;BMP280;61204;49.980;8.358;2023-01-29T13:15:34;101709.25;;;4.07
72278;BMP280;61204;49.980;8.358;2023-01-29T13:20:41;101701.72;;;4.36
72278;BMP280;61204;49.980;8.358;2023-01-29T13:23:18;101694.91;;;4.54
72278;BMP280;61204;49.980;8.358;2023-01-29T13:25:53;101688.44;;;4.62
72278;BMP280;61204;49.980;8.358;2023-01-29T13:28:20;101696.16;;;4.58
72278;BMP280;61204;49.980;8.358;2023-01-29T13:33:37;101694.59;;;4.27
72278;BMP280;61204;49.980;8.358;2023-01-29T13:36:10;101683.66;;;3.97
72278;BMP280;61204;49.980;8.358;2023-01-29T13:38:44;101689.47;;;4.18
72278;BMP280;61204;49.980;8.358;2023-01-29T13:41:09;101685.28;;;4.53
72278;BMP280;61204;49.980;8.358;2023-01-29T13:43:37;101686.72;;;4.59
72278;BMP280;61204;49.980;8.358;2023-01-29T13:46:10;101680.91;;;5.53
72278;BMP280;61204;49.980;8.358;2023-01-29T13:48:43;101673.13;;;6.19
72278;BMP280;61204;49.980;8.358;2023-01-29T13:51:14;101678.09;;;6.66
72278;BMP280;61204;49.980;8.358;2023-01-29T13:53:51;101673.25;;;6.59
72278;BMP280;61204;49.980;8.358;2023-01-29T13:58:52;101666.94;;;6.19
72278;BMP280;61204;49.980;8.358;2023-01-29T14:06:49;101652.53;;;6.96
72278;BMP280;61204;49.980;8.358;2023-01-29T14:12:03;101650.72;;;6.72
72278;BMP280;61204;49.980;8.358;2023-01-29T14:17:18;101649.69;;;6.29
72278;BMP280;61204;49.980;8.358;2023-01-29T14:19:48;101643.41;;;7.06
72278;BMP280;61204;49.980;8.358;2023-01-29T14:22:42;101642.19;;;7.42
72278;BMP280;61204;49.980;8.358;2023-01-29T14:25:14;101650.31;;;6.03
72278;BMP280;61204;49.980;8.358;2023-01-29T14:27:47;101647.97;;;5.94
72278;BMP280;61204;49.980;8.358;2023-01-29T14:30:22;101649.34;;;5.63
72278;BMP280;61204;49.980;8.358;2023-01-29T14:32:51;101649.75;;;6.24
72278;BMP280;61204;49.980;8.358;2023-01-29T14:35:18;101650.53;;;7.09
72278;BMP280;61204;49.980;8.358;2023-01-29T14:37:49;101646.19;;;7.41
72278;BMP280;61204;49.980;8.358;2023-01-29T14:40:22;101653.59;;;6.93
72278;BMP280;61204;49.980;8.358;2023-01-29T14:47:56;101637.28;;;6.47
72278;BMP280;61204;49.980;8.358;2023-01-29T14:52:53;101634.25;;;5.24
72278;BMP280;61204;49.980;8.358;2023-01-29T14:58:05;101619.72;;;5.60
72278;BMP280;61204;49.980;8.358;2023-01-29T15:00:39;101624.13;;;5.63
72278;BMP280;61204;49.980;8.358;2023-01-29T15:03:15;101616.50;;;5.80
72278;BMP280;61204;49.980;8.358;2023-01-29T15:05:52;101622.97;;;5.58
72278;BMP280;61204;49.980;8.358;2023-01-29T15:08:22;101612.22;;;5.85
72278;BMP280;61204;49.980;8.358;2023-01-29T15:10:59;101609.78;;;5.24
72278;BMP280;61204;49.980;8.358;2023-01-29T15:14:05;101613.00;;;5.23
72278;BMP280;61204;49.980;8.358;2023-01-29T15:16:47;101610.88;;;5.35
72278;BMP280;61204;49.980;8.358;2023-01-29T15:19:33;101617.28;;;4.94
72278;BMP280;61204;49.980;8.358;2023-01-29T15:22:17;101607.78;;;4.52
72278;BMP280;61204;49.980;8.358;2023-01-29T15:27:43;101594.03;;;4.68
72278;BMP280;61204;49.980;8.358;2023-01-29T15:30:13;101589.88;;;4.37
72278;BMP280;61204;49.980;8.358;2023-01-29T15:32:46;101593.38;;;4.87
72278;BMP280;61204;49.980;8.358;2023-01-29T15:37:57;101589.22;;;4.80
72278;BMP280;61204;49.980;8.358;2023-01-29T15:40:26;101568.84;;;4.08
72278;BMP280;61204;49.980;8.358;2023-01-29T15:42:53;101569.78;;;3.74
72278;BMP280;61204;49.980;8.358;2023-01-29T15:47:59;101559.38;;;3.84
72278;BMP280;61204;49.980;8.358;2023-01-29T15:50:38;101560.44;;;3.70
72278;BMP280;61204;49.980;8.358;2023-01-29T15:53:08;101554.06;;;3.67
72278;BMP280;61204;49.980;8.358;2023-01-29T15:55:42;101546.03;;;3.39
72278;BMP280;61204;49.980;8.358;2023-01-29T15:58:16;101551.47;;;3.39
72278;BMP280;61204;49.980;8.358;2023-01-29T16:00:54;101545.41;;;3.22
72278;BMP280;61204;49.980;8.358;2023-01-29T16:03:23;101544.69;;;2.99
72278;BMP280;61204;49.980;8.358;2023-01-29T16:05:52;101536.88;;;2.73
72278;BMP280;61204;49.980;8.358;2023-01-29T16:08:22;101540.34;;;2.40
72278;BMP280;61204;49.980;8.358;2023-01-29T16:10:52;101544.31;;;2.28
72278;BMP280;61204;49.980;8.358;2023-01-29T16:13:22;101538.84;;;2.11
72278;BMP280;61204;49.980;8.358;2023-01-29T16:15:55;101542.00;;;1.92
72278;BMP280;61204;49.980;8.358;2023-01-29T16:18:31;101537.09;;;1.80
72278;BMP280;61204;49.980;8.358;2023-01-29T16:21:04;101536.28;;;1.62
72278;BMP280;61204;49.980;8.358;2023-01-29T16:23:42;101545.28;;;1.37
72278;BMP280;61204;49.980;8.358;2023-01-29T16:26:33;101554.56;;;1.25
72278;BMP280;61204;49.980;8.358;2023-01-29T16:29:05;101546.13;;;1.11
72278;BMP280;61204;49.980;8.358;2023-01-29T16:31:41;101552.00;;;1.10
72278;BMP280;61204;49.980;8.358;2023-01-29T16:34:25;101547.81;;;1.03
72278;BMP280;61204;49.980;8.358;2023-01-29T16:37:04;101548.47;;;0.92
72278;BMP280;61204;49.980;8.358;2023-01-29T16:39:43;101551.88;;;0.87
72278;BMP280;61204;49.980;8.358;2023-01-29T16:44:54;101561.59;;;0.73
72278;BMP280;61204;49.980;8.358;2023-01-29T16:47:33;101549.47;;;0.63
72278;BMP280;61204;49.980;8.358;2023-01-29T16:50:22;101552.59;;;0.56
72278;BMP280;61204;49.980;8.358;2023-01-29T16:53:19;101555.72;;;0.49
72278;BMP280;61204;49.980;8.358;2023-01-29T16:55:47;101558.09;;;0.41
72278;BMP280;61204;49.980;8.358;2023-01-29T16:58:17;101561.00;;;0.38
72278;BMP280;61204;49.980;8.358;2023-01-29T17:00:46;101563.47;;;0.36
72278;BMP280;61204;49.980;8.358;2023-01-29T17:03:17;101570.53;;;0.28
72278;BMP280;61204;49.980;8.358;2023-01-29T17:05:44;101570.94;;;0.20
72278;BMP280;61204;49.980;8.358;2023-01-29T17:08:30;101567.19;;;0.12
72278;BMP280;61204;49.980;8.358;2023-01-29T17:10:58;101576.91;;;0.04
72278;BMP280;61204;49.980;8.358;2023-01-29T17:13:29;101579.28;;;-0.04
72278;BMP280;61204;49.980;8.358;2023-01-29T17:16:13;101571.84;;;-0.09
72278;BMP280;61204;49.980;8.358;2023-01-29T17:18:47;101572.78;;;-0.12
72278;BMP280;61204;49.980;8.358;2023-01-29T17:21:12;101585.06;;;-0.11
72278;BMP280;61204;49.980;8.358;2023-01-29T17:23:40;101577.44;;;-0.12
72278;BMP280;61204;49.980;8.358;2023-01-29T17:26:06;101570.03;;;-0.17
72278;BMP280;61204;49.980;8.358;2023-01-29T17:28:36;101569.53;;;-0.36
72278;BMP280;61204;49.980;8.358;2023-01-29T17:31:01;101564.59;;;-0.58
72278;BMP280;61204;49.980;8.358;2023-01-29T17:33:27;101563.53;;;-0.66
72278;BMP280;61204;49.980;8.358;2023-01-29T17:35:52;101559.81;;;-0.69
72278;BMP280;61204;49.980;8.358;2023-01-29T17:38:18;101561.50;;;-0.71
72278;BMP280;61204;49.980;8.358;2023-01-29T17:40:46;101555.34;;;-0.72
72278;BMP280;61204;49.980;8.358;2023-01-29T17:43:18;101548.47;;;-0.73